Terminal Aerodrome Forecast
Issued by NWS Corpus Christi, TX

Home | Current Version | Previous Version | Text Only | Print | Product List | Glossary On
Versions: 1 2 3 4 5 6 7 8 9 10 11 12 13 14 15 16 17 18 19
000
FTUS44 KCRP 041120
TAFVCT
TAF
KVCT 041120Z 0412/0512 17006KT P6SM VCSH SCT025
      TEMPO 0412/0416 BKN025
     FM042100 16014G18KT P6SM SCT035 BKN250
     FM050100 15008KT P6SM FEW020
     FM050800 16005KT 6SM BR BKN015=

USA.gov is the U.S. government's official web portal to all federal, state and local government web resources and services.